createdAt,value
2023-01-25T00:01:35.359Z,0.09
2023-01-25T00:04:17.675Z,0.09
2023-01-25T00:06:55.690Z,0.07
2023-01-25T00:09:30.894Z,0.05
2023-01-25T00:12:10.659Z,0.08
2023-01-25T00:14:42.564Z,0.02
2023-01-25T00:17:18.876Z,0.06
2023-01-25T00:19:49.332Z,0.03
2023-01-25T00:22:29.609Z,0.01
2023-01-25T00:25:07.572Z,0.01
2023-01-25T00:27:42.479Z,0.01
2023-01-25T00:30:17.911Z,0.00
2023-01-25T00:33:01.157Z,0.02
2023-01-25T00:35:35.173Z,0.07
2023-01-25T00:38:29.728Z,0.12
2023-01-25T00:41:12.645Z,0.14
2023-01-25T00:43:46.383Z,0.19
2023-01-25T00:46:21.030Z,0.21
2023-01-25T00:48:56.068Z,0.21
2023-01-25T00:51:29.832Z,0.25
2023-01-25T00:54:09.496Z,0.26
2023-01-25T00:56:47.635Z,0.26
2023-01-25T00:59:20.181Z,0.32
2023-01-25T01:01:54.567Z,0.32
2023-01-25T01:04:34.481Z,0.27
2023-01-25T01:07:10.885Z,0.21
2023-01-25T01:09:44.627Z,0.15
2023-01-25T01:12:18.973Z,0.09
2023-01-25T01:14:54.989Z,0.04
2023-01-25T01:17:29.987Z,0.03
2023-01-25T01:20:01.951Z,0.02
2023-01-25T01:22:41.542Z,-0.01
2023-01-25T01:25:13.521Z,-0.05
2023-01-25T01:27:49.194Z,-0.06
2023-01-25T01:30:21.347Z,-0.11
2023-01-25T01:32:57.472Z,-0.17
2023-01-25T01:35:34.972Z,-0.17
2023-01-25T01:38:13.714Z,-0.22
2023-01-25T01:40:59.234Z,-0.26
2023-01-25T01:43:36.753Z,-0.30
2023-01-25T01:46:22.874Z,-0.31
2023-01-25T01:49:08.343Z,-0.37
2023-01-25T01:51:53.130Z,-0.34
2023-01-25T01:54:41.896Z,-0.35
2023-01-25T01:57:23.942Z,-0.37
2023-01-25T02:00:10.059Z,-0.40
2023-01-25T02:02:45.671Z,-0.41
2023-01-25T02:05:23.177Z,-0.41
2023-01-25T02:07:59.840Z,-0.41
2023-01-25T02:10:33.939Z,-0.44
2023-01-25T02:13:08.727Z,-0.34
2023-01-25T02:15:49.971Z,-0.31
2023-01-25T02:18:23.172Z,-0.31
2023-01-25T02:21:03.681Z,-0.28
2023-01-25T02:23:43.465Z,-0.27
2023-01-25T02:26:21.278Z,-0.18
2023-01-25T02:28:59.179Z,-0.16
2023-01-25T02:31:39.925Z,-0.12
2023-01-25T02:34:14.620Z,-0.07
2023-01-25T02:36:53.499Z,-0.01
2023-01-25T02:39:26.880Z,-0.02
2023-01-25T02:42:09.771Z,0.04
2023-01-25T02:44:47.273Z,0.07
2023-01-25T02:47:22.210Z,0.09
2023-01-25T02:49:55.449Z,0.11
2023-01-25T02:52:32.374Z,0.12
2023-01-25T02:55:07.483Z,0.17
2023-01-25T02:57:47.356Z,0.22
2023-01-25T03:00:21.939Z,0.22
2023-01-25T03:03:00.712Z,0.24
2023-01-25T03:05:39.281Z,0.24
2023-01-25T03:08:12.592Z,0.28
2023-01-25T03:10:50.690Z,0.26
2023-01-25T03:13:28.450Z,0.22
2023-01-25T03:16:10.448Z,0.26
2023-01-25T03:18:51.839Z,0.30
2023-01-25T03:21:24.215Z,0.32
2023-01-25T03:24:11.458Z,0.32
2023-01-25T03:27:02.783Z,0.34
2023-01-25T03:30:01.690Z,0.35
2023-01-25T03:32:40.284Z,0.34
2023-01-25T03:35:25.699Z,0.44
2023-01-25T03:38:05.114Z,0.47
2023-01-25T03:40:35.595Z,0.54
2023-01-25T03:43:14.971Z,0.57
2023-01-25T03:45:51.950Z,0.61
2023-01-25T03:48:25.432Z,0.57
2023-01-25T03:51:03.162Z,0.63
2023-01-25T03:53:35.156Z,0.54
2023-01-25T03:56:33.372Z,0.63
2023-01-25T03:59:40.792Z,0.59
2023-01-25T04:02:30.202Z,0.55
2023-01-25T04:05:06.945Z,0.56
2023-01-25T04:07:47.930Z,0.55
2023-01-25T04:10:31.981Z,0.57
2023-01-25T04:13:06.157Z,0.58
2023-01-25T04:15:42.309Z,0.61
2023-01-25T04:18:32.436Z,0.66
2023-01-25T04:21:08.173Z,0.63
2023-01-25T04:23:44.107Z,0.61
2023-01-25T04:26:24.791Z,0.55
2023-01-25T04:29:13.153Z,0.59
2023-01-25T04:31:46.933Z,0.66
2023-01-25T04:34:21.825Z,0.65
2023-01-25T04:36:59.506Z,0.59
2023-01-25T04:39:40.557Z,0.67
2023-01-25T04:42:11.817Z,0.66
2023-01-25T04:44:49.212Z,0.62
2023-01-25T04:47:25.928Z,0.62
2023-01-25T04:50:19.250Z,0.59
2023-01-25T04:52:57.368Z,0.62
2023-01-25T04:55:33.678Z,0.66
2023-01-25T04:58:08.681Z,0.61
2023-01-25T05:00:46.837Z,0.51
2023-01-25T05:03:26.734Z,0.60
2023-01-25T05:06:02.244Z,0.51
2023-01-25T05:08:34.324Z,0.56
2023-01-25T05:11:16.397Z,0.61
2023-01-25T05:14:10.098Z,0.52
2023-01-25T05:16:46.829Z,0.52
2023-01-25T05:19:23.035Z,0.58
2023-01-25T05:22:15.618Z,0.58
2023-01-25T05:25:01.413Z,0.62
2023-01-25T05:27:32.460Z,0.63
2023-01-25T05:30:23.692Z,0.71
2023-01-25T05:33:04.802Z,0.71
2023-01-25T05:35:36.633Z,0.66
2023-01-25T05:38:17.137Z,0.69
2023-01-25T05:40:49.243Z,0.62
2023-01-25T05:43:27.338Z,0.64
2023-01-25T05:46:01.414Z,0.74
2023-01-25T05:48:43.457Z,0.71
2023-01-25T05:51:16.494Z,0.73
2023-01-25T05:54:01.277Z,0.73
2023-01-25T05:56:36.103Z,0.74
2023-01-25T05:59:18.901Z,0.64
2023-01-25T06:01:57.833Z,0.66
2023-01-25T06:04:36.590Z,0.64
2023-01-25T06:07:11.245Z,0.66
2023-01-25T06:09:49.200Z,0.70
2023-01-25T06:12:23.873Z,0.68
2023-01-25T06:14:57.300Z,0.67
2023-01-25T06:17:35.051Z,0.73
2023-01-25T06:20:41.101Z,0.68
2023-01-25T06:23:14.151Z,0.69
2023-01-25T06:25:49.184Z,0.70
2023-01-25T06:28:22.078Z,0.67
2023-01-25T06:31:02.417Z,0.70
2023-01-25T06:33:39.120Z,0.75
2023-01-25T06:36:15.928Z,0.73
2023-01-25T06:38:46.644Z,0.81
2023-01-25T06:41:35.364Z,0.79
2023-01-25T06:44:07.181Z,0.78
2023-01-25T06:46:47.283Z,0.76
2023-01-25T06:49:18.295Z,0.77
2023-01-25T06:51:51.382Z,0.72
2023-01-25T06:54:25.577Z,0.78
2023-01-25T06:57:06.216Z,0.74
2023-01-25T06:59:45.407Z,0.77
2023-01-25T07:02:23.848Z,0.83
2023-01-25T07:04:58.802Z,0.86
2023-01-25T07:07:32.073Z,0.77
2023-01-25T07:10:09.201Z,0.71
2023-01-25T07:12:50.233Z,0.78
2023-01-25T07:15:22.936Z,0.89
2023-01-25T07:17:54.351Z,0.83
2023-01-25T07:20:26.671Z,0.92
2023-01-25T07:22:58.340Z,0.91
2023-01-25T07:25:38.224Z,0.86
2023-01-25T07:28:20.761Z,0.96
2023-01-25T07:30:54.691Z,0.95
2023-01-25T07:33:27.725Z,0.98
2023-01-25T07:36:06.805Z,0.93
2023-01-25T07:38:40.964Z,0.93
2023-01-25T07:41:20.019Z,0.91
2023-01-25T07:44:02.412Z,0.94
2023-01-25T07:46:49.007Z,0.98
2023-01-25T07:49:29.307Z,1.04
2023-01-25T07:52:01.968Z,1.01
2023-01-25T07:54:57.749Z,1.06
2023-01-25T07:57:51.620Z,1.12
2023-01-25T08:00:35.711Z,1.13
2023-01-25T08:03:15.373Z,1.12
2023-01-25T08:05:47.954Z,1.22
2023-01-25T08:08:23.505Z,1.22
2023-01-25T08:10:57.122Z,1.24
2023-01-25T08:13:33.653Z,1.25
2023-01-25T08:16:17.814Z,1.29
2023-01-25T08:18:55.228Z,1.31
2023-01-25T08:21:32.550Z,1.38
2023-01-25T08:24:08.195Z,1.50
2023-01-25T08:26:40.492Z,1.49
2023-01-25T08:29:13.268Z,1.51
2023-01-25T08:31:54.228Z,1.44
2023-01-25T08:34:26.537Z,1.60
2023-01-25T08:37:01.496Z,1.71
2023-01-25T08:39:31.803Z,1.68
2023-01-25T08:42:05.102Z,1.62
2023-01-25T08:44:36.133Z,1.71
2023-01-25T08:47:20.617Z,1.70
2023-01-25T08:49:55.521Z,1.67
2023-01-25T08:52:37.331Z,1.71
2023-01-25T08:55:16.213Z,1.72
2023-01-25T08:57:48.951Z,1.83
2023-01-25T09:00:35.210Z,1.88
2023-01-25T09:03:13.443Z,2.03
2023-01-25T09:05:50.153Z,1.87
2023-01-25T09:08:23.501Z,1.84
2023-01-25T09:10:58.128Z,2.02
2023-01-25T09:13:31.843Z,2.04
2023-01-25T09:16:12.217Z,2.18
2023-01-25T09:18:57.705Z,2.37
2023-01-25T09:21:31.211Z,2.51
2023-01-25T09:24:06.566Z,2.35
2023-01-25T09:26:50.076Z,2.40
2023-01-25T09:29:26.963Z,2.51
2023-01-25T09:32:04.278Z,2.32
2023-01-25T09:35:08.592Z,2.20
2023-01-25T09:37:47.343Z,2.54
2023-01-25T09:40:28.751Z,2.57
2023-01-25T09:43:06.782Z,2.35
2023-01-25T09:45:44.446Z,2.68
2023-01-25T09:48:27.508Z,2.84
2023-01-25T09:51:20.869Z,2.70
2023-01-25T09:54:00.107Z,2.80
2023-01-25T09:56:35.243Z,2.80
2023-01-25T09:59:23.038Z,2.72
2023-01-25T10:02:00.945Z,2.98
2023-01-25T10:04:41.369Z,2.65
2023-01-25T10:07:26.137Z,2.73
2023-01-25T10:10:09.537Z,2.73
2023-01-25T10:12:42.605Z,2.60
2023-01-25T10:15:26.234Z,2.80
2023-01-25T10:18:06.024Z,2.94
2023-01-25T10:20:47.165Z,2.76
2023-01-25T10:23:55.943Z,2.70
2023-01-25T10:26:42.608Z,2.77
2023-01-25T10:29:23.025Z,2.71
2023-01-25T10:31:57.192Z,2.75
2023-01-25T10:34:54.311Z,2.85
2023-01-25T10:37:43.643Z,2.89
2023-01-25T10:40:26.865Z,3.09
2023-01-25T10:43:08.388Z,2.93
2023-01-25T10:45:44.759Z,2.92
2023-01-25T10:48:29.925Z,2.88
2023-01-25T10:51:08.366Z,2.98
2023-01-25T10:53:44.749Z,3.16
2023-01-25T10:56:32.813Z,3.12
2023-01-25T10:59:35.243Z,3.25
2023-01-25T11:05:38.951Z,2.97
2023-01-25T11:08:31.541Z,3.10
2023-01-25T11:11:02.529Z,3.19
2023-01-25T11:13:39.633Z,3.17
2023-01-25T11:16:36.183Z,3.30
2023-01-25T11:19:31.856Z,3.25
2023-01-25T11:22:07.972Z,3.20
2023-01-25T11:24:40.530Z,3.20
2023-01-25T11:27:25.021Z,3.27
2023-01-25T11:30:13.313Z,3.15
2023-01-25T11:32:54.813Z,3.12
2023-01-25T11:35:34.839Z,3.09
2023-01-25T11:38:16.678Z,3.17
2023-01-25T11:40:57.789Z,3.11
2023-01-25T11:43:54.781Z,3.16
2023-01-25T11:46:47.624Z,3.13
2023-01-25T11:49:50.639Z,3.06
2023-01-25T11:52:38.034Z,3.10
2023-01-25T11:55:29.449Z,3.16
2023-01-25T11:58:24.899Z,3.21
2023-01-25T12:01:19.174Z,3.27
2023-01-25T12:04:24.966Z,3.36
2023-01-25T12:07:07.215Z,3.29
2023-01-25T12:10:25.655Z,3.17
2023-01-25T12:13:11.001Z,3.18
2023-01-25T12:16:06.332Z,3.04
2023-01-25T12:19:05.692Z,3.21
2023-01-25T12:22:01.002Z,3.08
2023-01-25T12:24:51.773Z,3.23
2023-01-25T12:27:39.898Z,3.11
2023-01-25T12:30:27.702Z,3.07
2023-01-25T12:33:14.022Z,3.08
2023-01-25T12:35:53.924Z,2.85
2023-01-25T12:38:39.262Z,2.89
2023-01-25T12:41:24.408Z,3.00
2023-01-25T12:44:07.699Z,2.97
2023-01-25T12:46:52.088Z,3.03
2023-01-25T12:49:43.411Z,2.85
2023-01-25T12:52:23.971Z,2.84
2023-01-25T12:55:01.006Z,3.00
2023-01-25T12:57:48.554Z,2.87
2023-01-25T13:00:28.573Z,2.72
2023-01-25T13:03:25.663Z,2.80
2023-01-25T13:06:07.118Z,2.74
2023-01-25T13:08:56.536Z,2.78
2023-01-25T13:11:33.302Z,2.82
2023-01-25T13:14:30.316Z,2.81
2023-01-25T13:17:41.342Z,2.72
2023-01-25T13:20:48.738Z,2.77
2023-01-25T13:23:43.952Z,2.86
2023-01-25T13:26:47.287Z,2.66
2023-01-25T13:29:57.423Z,2.71
2023-01-25T13:33:07.417Z,2.63
2023-01-25T13:35:47.389Z,2.77
2023-01-25T13:38:41.635Z,2.65
2023-01-25T13:41:23.494Z,2.80
2023-01-25T13:44:28.517Z,2.85
2023-01-25T13:47:20.283Z,2.75
2023-01-25T13:50:01.629Z,2.66
2023-01-25T13:52:36.287Z,2.74
2023-01-25T13:55:21.075Z,2.77
2023-01-25T13:58:03.092Z,2.83
2023-01-25T14:00:42.775Z,2.89
2023-01-25T14:03:23.046Z,2.76
2023-01-25T14:05:59.195Z,2.76
2023-01-25T14:08:32.656Z,2.77
2023-01-25T14:11:03.199Z,2.74
2023-01-25T14:13:43.456Z,2.64
2023-01-25T14:16:24.940Z,2.70
2023-01-25T14:19:31.618Z,2.65
2023-01-25T14:22:31.631Z,2.71
2023-01-25T14:25:11.130Z,2.60
2023-01-25T14:27:47.500Z,2.62
2023-01-25T14:30:30.839Z,2.72
2023-01-25T14:33:03.716Z,2.48
2023-01-25T14:35:55.613Z,2.56
2023-01-25T14:38:39.252Z,2.50
2023-01-25T14:41:22.742Z,2.43
2023-01-25T14:43:59.031Z,2.41
2023-01-25T14:46:37.733Z,2.52
2023-01-25T14:49:28.878Z,2.50
2023-01-25T14:52:14.408Z,2.57
2023-01-25T14:54:58.455Z,2.59
2023-01-25T14:57:37.124Z,2.50
2023-01-25T15:00:14.313Z,2.52
2023-01-25T15:02:57.925Z,2.49
2023-01-25T15:05:34.844Z,2.60
2023-01-25T15:08:42.357Z,2.54
2023-01-25T15:11:52.793Z,2.47
2023-01-25T15:14:34.525Z,2.46
2023-01-25T15:17:10.693Z,2.51
2023-01-25T15:20:01.769Z,2.45
2023-01-25T15:22:36.789Z,2.44
2023-01-25T15:25:24.245Z,2.44
2023-01-25T15:27:59.473Z,2.46
2023-01-25T15:30:44.939Z,2.44
2023-01-25T15:33:25.469Z,2.41
2023-01-25T15:35:59.317Z,2.43
2023-01-25T15:38:29.774Z,2.38
2023-01-25T15:41:04.089Z,2.36
2023-01-25T15:43:39.778Z,2.30
2023-01-25T15:46:18.950Z,2.31
2023-01-25T15:48:59.866Z,2.24
2023-01-25T15:51:35.585Z,2.28
2023-01-25T15:54:13.652Z,2.40
2023-01-25T15:57:00.194Z,2.32
2023-01-25T15:59:46.897Z,2.27
2023-01-25T16:02:26.370Z,2.28
2023-01-25T16:04:59.991Z,2.35
2023-01-25T16:07:34.674Z,2.33
2023-01-25T16:10:05.430Z,2.30
2023-01-25T16:12:36.821Z,2.24
2023-01-25T16:15:13.666Z,2.26
2023-01-25T16:17:44.575Z,2.30
2023-01-25T16:20:22.087Z,2.25
2023-01-25T16:22:54.712Z,2.18
2023-01-25T16:25:27.533Z,2.18
2023-01-25T16:27:57.911Z,2.18
2023-01-25T16:30:34.366Z,2.24
2023-01-25T16:33:04.964Z,2.24
2023-01-25T16:35:35.519Z,2.25
2023-01-25T16:38:06.328Z,2.15
2023-01-25T16:40:40.037Z,2.20
2023-01-25T16:43:14.311Z,2.15
2023-01-25T16:45:48.057Z,2.16
2023-01-25T16:48:18.688Z,2.22
2023-01-25T16:50:49.008Z,2.17
2023-01-25T16:53:19.491Z,2.13
2023-01-25T16:55:51.810Z,2.15
2023-01-25T16:58:22.425Z,2.09
2023-01-25T17:00:56.207Z,2.11
2023-01-25T17:03:26.497Z,2.11
2023-01-25T17:05:56.941Z,2.08
2023-01-25T17:08:28.514Z,2.18
2023-01-25T17:10:59.203Z,2.16
2023-01-25T17:13:29.901Z,2.12
2023-01-25T17:16:03.871Z,2.11
2023-01-25T17:18:34.377Z,2.10
2023-01-25T17:21:06.241Z,2.08
2023-01-25T17:23:38.341Z,2.11
2023-01-25T17:26:12.659Z,2.05
2023-01-25T17:28:44.016Z,2.07
2023-01-25T17:31:22.488Z,2.05
2023-01-25T17:33:53.576Z,2.02
2023-01-25T17:36:24.433Z,1.96
2023-01-25T17:38:54.731Z,2.03
2023-01-25T17:41:25.603Z,2.07
2023-01-25T17:43:56.452Z,2.04
2023-01-25T17:46:36.454Z,2.01
2023-01-25T17:49:11.360Z,2.03
2023-01-25T17:51:41.873Z,2.10
2023-01-25T17:54:13.371Z,2.03
2023-01-25T17:56:43.825Z,1.98
2023-01-25T17:59:14.224Z,2.02
2023-01-25T18:01:47.372Z,2.00
2023-01-25T18:04:20.750Z,1.92
2023-01-25T18:06:51.293Z,1.99
2023-01-25T18:09:21.739Z,1.97
2023-01-25T18:11:52.240Z,1.93
2023-01-25T18:14:22.780Z,2.00
2023-01-25T18:16:55.900Z,1.95
2023-01-25T18:19:26.194Z,1.95
2023-01-25T18:21:57.634Z,2.01
2023-01-25T18:24:33.002Z,1.98
2023-01-25T18:27:06.889Z,1.97
2023-01-25T18:29:46.775Z,2.00
2023-01-25T18:32:19.753Z,2.05
2023-01-25T18:34:52.990Z,2.00
2023-01-25T18:37:29.669Z,2.02
2023-01-25T18:40:00.057Z,2.04
2023-01-25T18:42:30.368Z,2.05
2023-01-25T18:45:00.577Z,2.05
2023-01-25T18:47:33.586Z,1.95
2023-01-25T18:50:04.077Z,1.99
2023-01-25T18:52:34.604Z,1.90
2023-01-25T18:55:05.198Z,1.98
2023-01-25T18:57:35.802Z,1.90
2023-01-25T19:00:07.179Z,1.87
2023-01-25T19:02:41.369Z,1.86
2023-01-25T19:05:14.610Z,1.86
2023-01-25T19:07:45.002Z,1.87
2023-01-25T19:10:15.296Z,1.88
2023-01-25T19:12:45.517Z,1.91
2023-01-25T19:15:16.197Z,1.93
2023-01-25T19:17:49.264Z,1.94
2023-01-25T19:20:20.391Z,1.89
2023-01-25T19:22:50.620Z,1.82
2023-01-25T19:25:22.085Z,1.84
2023-01-25T19:27:52.282Z,1.83
2023-01-25T19:30:22.616Z,1.77
2023-01-25T19:32:55.523Z,1.85
2023-01-25T19:35:25.797Z,1.82
2023-01-25T19:37:56.617Z,1.84
2023-01-25T19:40:27.131Z,1.79
2023-01-25T19:42:57.959Z,1.78
2023-01-25T19:45:29.120Z,1.72
2023-01-25T19:48:07.008Z,1.68
2023-01-25T19:50:37.534Z,1.71
2023-01-25T19:53:07.744Z,1.69
2023-01-25T19:55:38.008Z,1.74
2023-01-25T19:58:09.948Z,1.73
2023-01-25T20:00:40.932Z,1.72
2023-01-25T20:03:16.722Z,1.69
2023-01-25T20:05:46.975Z,1.71
2023-01-25T20:08:17.153Z,1.70
2023-01-25T20:10:47.545Z,1.73
2023-01-25T20:13:17.914Z,1.68
2023-01-25T20:15:51.616Z,1.67
2023-01-25T20:18:25.584Z,1.70
2023-01-25T20:20:58.899Z,1.67
2023-01-25T20:23:29.853Z,1.65
2023-01-25T20:26:02.089Z,1.58
2023-01-25T20:28:32.881Z,1.66
2023-01-25T20:31:04.401Z,1.70
2023-01-25T20:33:37.634Z,1.75
2023-01-25T20:36:09.541Z,1.68
2023-01-25T20:38:42.463Z,1.68
2023-01-25T20:41:15.992Z,1.65
2023-01-25T20:43:49.401Z,1.66
2023-01-25T20:46:21.048Z,1.63
2023-01-25T20:48:57.448Z,1.67
2023-01-25T20:51:27.821Z,1.62
2023-01-25T20:53:58.547Z,1.61
2023-01-25T20:56:29.130Z,1.60
2023-01-25T20:59:01.634Z,1.62
2023-01-25T21:01:37.289Z,1.54
2023-01-25T21:04:11.785Z,1.57
2023-01-25T21:06:43.906Z,1.59
2023-01-25T21:09:14.706Z,1.60
2023-01-25T21:11:45.088Z,1.59
2023-01-25T21:14:20.407Z,1.59
2023-01-25T21:16:53.133Z,1.54
2023-01-25T21:19:26.738Z,1.54
2023-01-25T21:22:02.609Z,1.53
2023-01-25T21:24:37.396Z,1.50
2023-01-25T21:27:09.448Z,1.55
2023-01-25T21:29:43.403Z,1.53
2023-01-25T21:32:17.992Z,1.53
2023-01-25T21:34:57.231Z,1.60
2023-01-25T21:37:30.783Z,1.57
2023-01-25T21:40:00.952Z,1.52
2023-01-25T21:42:36.167Z,1.50
2023-01-25T21:53:22.629Z,1.54
2023-01-25T21:56:01.153Z,1.54
2023-01-25T21:58:39.473Z,1.56
2023-01-25T22:01:19.051Z,1.51
2023-01-25T22:06:42.559Z,1.51
2023-01-25T22:09:16.334Z,1.49
2023-01-25T22:11:48.403Z,1.50
2023-01-25T22:14:21.875Z,1.49
2023-01-25T22:16:52.991Z,1.46
2023-01-25T22:19:23.519Z,1.50
2023-01-25T22:21:58.177Z,1.50
2023-01-25T22:37:42.594Z,1.47
2023-01-25T22:40:14.606Z,1.50
2023-01-25T22:42:45.162Z,1.50
2023-01-25T22:45:16.259Z,1.50
2023-01-25T22:47:46.834Z,1.46
2023-01-25T22:50:17.324Z,1.45
2023-01-25T22:52:51.201Z,1.48
2023-01-25T22:55:21.431Z,1.46
2023-01-25T22:57:51.866Z,1.45
2023-01-25T23:00:23.133Z,1.47
2023-01-25T23:02:56.033Z,1.48
2023-01-25T23:19:03.449Z,1.48
2023-01-25T23:21:34.479Z,1.44
2023-01-25T23:24:06.176Z,1.37
2023-01-25T23:29:57.681Z,1.40
2023-01-25T23:32:28.430Z,1.38
2023-01-25T23:35:01.543Z,1.38
2023-01-25T23:37:32.177Z,1.35
2023-01-25T23:40:02.464Z,1.36
2023-01-25T23:42:32.816Z,1.31
2023-01-25T23:45:03.165Z,1.28
